• Join FlightAware (Why Join?)
  • Login
  • US Flag 
04:49PM EST


 

Airport Tracker/Info


-or-


 

Live Flight TrackerFlight Track Log ✈ EMD21 ✈ 16-Jun-2013 ✈ KMLC - KDAL

Flight Track Log - Related Links

Times and Time Zones

All times are in EDT time to prevent confusion due to time zone crossing. See the EMD21 flight status page for this flight to view local times or setup timezone preferences in your user account.

Time Position Orientation Groundspeed Altitude Reporting Facility
EDT Latitude Longitude Course Direction KTS MPH feet Rate Location/Type
08:11PM 34.7708 -95.8464 202° Southwest 213 245 3,400  Level Fort Worth Center
08:12PM 34.7253 -95.8750 207° Southwest 194 223 4,200 660 Climbing Fort Worth Center
08:13PM 34.6797 -95.8986 203° Southwest 194 223 4,800 600 Climbing Fort Worth Center
08:14PM 34.6214 -95.9272 202° Southwest 194 223 5,500 540 Climbing Fort Worth Center
08:15PM 34.5717 -95.9533 203° Southwest 194 223 5,900 180 Climbing Fort Worth Center
08:16PM 34.5889 -95.9410 202° Southwest  Level Estimated
08:16PM 34.5178 -95.9844 205° Southwest 199 229 5,900  Level Fort Worth Center
08:17PM 34.4661 -96.0131 205° Southwest 211 243 6,000  Climbing Fort Worth Center
08:18PM 34.4100 -96.0417 203° Southwest 211 243 6,000 -60 Level Fort Worth Center
08:19PM 34.3539 -96.0728 205° Southwest 216 249 5,900 -60 Descending Fort Worth Center
08:20PM 34.3000 -96.0986 202° Southwest 216 249 5,900  Level Fort Worth Center
08:21PM 34.2442 -96.1347 208° Southwest 216 249 6,000  Climbing Fort Worth Center
08:22PM 34.2028 -96.1831 224° Southwest 211 243 6,000  Level Fort Worth Center
08:23PM 34.1594 -96.2289 221° Southwest 211 243 6,000  Level Fort Worth Center
08:24PM 34.1119 -96.2772 220° Southwest 217 250 6,000  Level Fort Worth Center
08:25PM 34.0725 -96.3103 215° Southwest 210 242 6,000  Level Fort Worth Center
08:26PM 34.0164 -96.3361 201° Southwest 205 236 6,000  Level Fort Worth Center
08:27PM 33.9583 -96.3617 200° South 217 250 6,000  Level Fort Worth Center
08:28PM 33.9042 -96.3900 203° Southwest 222 255 6,000  Level Fort Worth Center
08:29PM 33.8458 -96.4131 198° South 222 255 6,000  Level Fort Worth Center
08:30PM 33.7878 -96.4414 202° Southwest 227 261 6,000  Level Fort Worth Center
08:31PM 33.7275 -96.4669 199° South 227 261 6,000  Level Fort Worth Center
08:32PM 33.6733 -96.4900 200° South 227 261 6,000  Level Fort Worth Center
08:33PM 33.6131 -96.5181 201° Southwest 227 261 6,000  Level Fort Worth Center
08:34PM 33.5608 -96.5433 202° Southwest 227 261 6,000  Level Fort Worth Center
08:35PM 33.4964 -96.5692 198° South 227 261 6,000  Level Fort Worth Center
08:36PM 33.4425 -96.5994 205° Southwest 227 261 6,000  Level Fort Worth Center
08:37PM 33.3967 -96.6322 211° Southwest 227 261 6,000  Level Fort Worth Center
08:38PM 33.3383 -96.6700 208° Southwest 221 254 6,000 -120 Level Fort Worth Center
08:39PM 33.2864 -96.6953 202° Southwest 221 254 5,800 -600 Descending Fort Worth Center
08:40PM 33.2261 -96.7331 208° Southwest 221 254 4,900 -900 Descending Fort Worth Center
08:41PM 33.1783 -96.7606 206° Southwest 221 254 4,100 -480 Descending Fort Worth Center
08:42PM 33.1200 -96.7933 205° Southwest 216 249 4,000 -180 Descending Fort Worth Center
08:43PM 33.0719 -96.8208 206° Southwest 216 249 3,800 -600 Descending Fort Worth Center
08:44PM 33.0139 -96.8561 207° Southwest 216 249 2,900 -600 Descending Fort Worth Center
08:45PM 32.9658 -96.8811 204° Southwest 216 249 2,700 -360 Descending Fort Worth Center
08:46PM 32.9178 -96.8914 190° South 205 236 2,200 -720 Descending Fort Worth Center
08:47PM 32.8781 -96.8792 166° South 183 211 1,300 -780 Descending Fort Worth Center
08:48PM 32.8342 -96.8669 167° South 158 182 700 -600 Descending Fort Worth Center
08:50PM 32.8333 -96.8500 90° East  Level FlightAware Approximate